Flugplatz Illesheim (ETIK)

Hier findest Du alle Informationen zum Flugplatz Illesheim (ETIK).

Informationen für Piloten zum Flugplatz Illesheim

Hier findest Du alle relevanten Informationen, die Du als Pilot benötigst, um Illesheim anzufliegen.

Flugplatz: Illesheim ICAO-Code: ETIK
Frequenz Turm: - GAFOR Gebiet: -
Frequenz Ground: - Mogas: nein
Platzrunde: - Landegebühr: -
Platzhöhe: Sunrise: 03:54 Uhr UTC
Pisten: Sunset: 18:54 Uhr UTC

Flugwetter am Flugplatz Illesheim

Die METAR Information stammen aus EDDN (50.33 km entfernt).

METAR Code:
2020/07/29 19:50
EDDN 291950Z 35002KT CAVOK 20/10 Q1019 NOSIG

Flugschulen am Flugplatz Illesheim

Am Flugplatz Illesheim gibt es leider keine Flugschule.

Benachbarte Flugplätze und Flugschulen

Es gibt 19 weitere Flugplätze in einem Umkreis von 50 km um den Flugplatz Illesheim.

Jetzt anmelden

Passwort vergessen

Umfrage Archiv

Wären Rettungsgeräte keine Pflicht mehr, würdet Ihr Euer UL trotzdem mit einem ausstatten?

Ja
82.7 %
Nein
17.3 %
Stimmen: 249 | Diskussion
Anzeige: Roland Aircraft
Statistik Alle Mitglieder

Aktuell sind 28 Besucher online.

Anzeige: VFR Sprechfunk Simulator


Anzeige: Pocket FMS